Pagrindinis puslapis
METAR-TAF:

METAR-TAF

Oro uostai :

Cherokee County Airport

Jacksonville, Teksasas, Jungtinės Amerikos Valstijos

platuma: 31-52-09N, ilguma: 095-13-02W, Aukštis: 206 m

Dabartinis oras

Ataskaita buvo paskelbta 24 minutes, ne 07:15 UTC
Ramus vėjas
Temperatūra 17°C
Drėgmė 94%
Slėgis 1013 hPa
Matomumas: 16.1 km
Giedras dangus

METAR: KJSO 270715Z AUTO 00000KT 10SM CLR 17/16 A2991 RMK AO2 T01710159

Laikas: 02:39 (07:39 UTC)


TAF: trūkstamas

Orai ataskaitas ir orų prognozės (METAR, TAF).

turimą stotys yra geltonos ir raudonos taškus žemėlapyje.

Perkelti pele per norėdami pamatyti stoties vardą.

Tada spustelėkite, norėdami matyti oro stebėjimo ir prognozės.

Norėdami pakeisti žemėlapį: spustelėkite ant žalios mygtukų su juodo kryžiaus žemyn,; žalią mygtuką su brūkšneliu, jei norite nutolinti; arba žalių rodyklių gretimoms žemėlapius.


METAR-TAF: